Time;durP1;ratioP1;P1;durP2;ratioP2;P2;SDS_P1;SDS_P2;PMS_P1;PMS_P2;Temp;Humidity;BMP_temperature;BMP_pressure;BME280_temperature;BME280_humidity;BME280_pressure;Samples;Min_cycle;Max_cycle;Signal;HPM_P1;HPM_P2
2023/12/17 00:00:19;;;;;;;0.10;0.10;;;;;;;;;;4975715;28;20142;-87
2023/12/17 00:02:45;;;;;;;0.20;0.20;;;;;;;;;;4976086;28;20066;-88
2023/12/17 00:05:11;;;;;;;0.10;0.10;;;;;;;;;;4975996;28;20571;-88
2023/12/17 00:07:37;;;;;;;0.10;0.10;;;;;;;;;;4975813;28;20145;-87
2023/12/17 00:10:04;;;;;;;0.10;0.10;;;;;;;;;;4976026;28;20053;-88
2023/12/17 00:12:30;;;;;;;0.10;0.10;;;;;;;;;;4991820;28;20039;-87
2023/12/17 00:14:56;;;;;;;0.10;0.10;;;;;;;;;;4991950;28;20049;-88
2023/12/17 00:17:22;;;;;;;0.10;0.10;;;;;;;;;;4975601;28;20046;-88
2023/12/17 00:19:48;;;;;;;0.20;0.20;;;;;;;;;;4975583;28;20046;-88
2023/12/17 00:22:14;;;;;;;0.10;0.10;;;;;;;;;;4992202;28;20238;-88
2023/12/17 00:24:40;;;;;;;0.10;0.10;;;;;;;;;;4975653;28;20069;-87
2023/12/17 00:27:06;;;;;;;0.13;0.13;;;;;;;;;;4991727;28;20061;-88
2023/12/17 00:29:32;;;;;;;1.85;0.20;;;;;;;;;;4975333;28;20077;-88
2023/12/17 00:31:58;;;;;;;0.10;0.10;;;;;;;;;;4975587;28;20046;-88
2023/12/17 00:34:24;;;;;;;0.17;0.17;;;;;;;;;;4975477;28;20042;-87
2023/12/17 00:36:50;;;;;;;0.20;0.20;;;;;;;;;;4975543;28;20522;-86
2023/12/17 00:39:16;;;;;;;0.10;0.10;;;;;;;;;;4991623;28;20038;-87
2023/12/17 00:41:42;;;;;;;0.10;0.10;;;;;;;;;;4991682;28;20445;-88
2023/12/17 00:44:08;;;;;;;0.10;0.10;;;;;;;;;;4975296;28;20080;-88
2023/12/17 00:46:33;;;;;;;0.10;0.10;;;;;;;;;;4975420;28;20034;-88
2023/12/17 00:49:00;;;;;;;0.10;0.10;;;;;;;;;;4991698;28;20486;-88
2023/12/17 00:51:26;;;;;;;0.10;0.10;;;;;;;;;;4975204;28;20049;-86
2023/12/17 00:53:52;;;;;;;0.10;0.10;;;;;;;;;;4991467;28;20161;-87
2023/12/17 00:56:17;;;;;;;0.10;0.10;;;;;;;;;;4975513;28;20078;-88
2023/12/17 00:58:43;;;;;;;0.10;0.10;;;;;;;;;;4995424;28;20469;-88
2023/12/17 01:01:10;;;;;;;0.20;0.20;;;;;;;;;;4979017;28;20056;-87
2023/12/17 01:03:36;;;;;;;0.10;0.10;;;;;;;;;;4979157;28;20043;-87
2023/12/17 01:06:02;;;;;;;0.10;0.10;;;;;;;;;;4995392;28;20042;-88
2023/12/17 01:08:28;;;;;;;0.20;0.20;;;;;;;;;;4979480;28;20054;-88
2023/12/17 01:10:54;;;;;;;0.20;0.20;;;;;;;;;;4995439;28;20054;-88
2023/12/17 01:13:20;;;;;;;0.10;0.10;;;;;;;;;;4979005;28;20485;-87
2023/12/17 01:15:46;;;;;;;0.10;0.10;;;;;;;;;;4979105;28;20096;-88
2023/12/17 01:18:12;;;;;;;0.10;0.10;;;;;;;;;;4978964;28;20078;-88
2023/12/17 01:20:40;;;;;;;0.10;0.10;;;;;;;;;;4979131;28;20089;-88
2023/12/17 01:23:06;;;;;;;0.10;0.10;;;;;;;;;;4978860;28;20482;-89
2023/12/17 01:25:32;;;;;;;0.10;0.10;;;;;;;;;;4978964;28;20034;-88
2023/12/17 01:27:58;;;;;;;0.20;0.20;;;;;;;;;;4994872;28;20038;-89
2023/12/17 01:30:24;;;;;;;0.20;0.20;;;;;;;;;;4978808;28;20049;-88
2023/12/17 01:32:50;;;;;;;0.40;0.40;;;;;;;;;;4978791;28;20474;-88
2023/12/17 01:35:16;;;;;;;0.10;0.10;;;;;;;;;;4979004;28;20031;-88
2023/12/17 01:37:42;;;;;;;0.10;0.10;;;;;;;;;;4979031;28;20493;-88
2023/12/17 01:40:08;;;;;;;0.17;0.17;;;;;;;;;;4978408;28;20453;-88
2023/12/17 01:42:34;;;;;;;0.20;0.20;;;;;;;;;;4978702;28;20215;-87
2023/12/17 01:45:00;;;;;;;0.10;0.10;;;;;;;;;;4978548;28;20073;-89
2023/12/17 01:47:26;;;;;;;0.10;0.10;;;;;;;;;;4978431;28;20482;-88
2023/12/17 01:49:52;;;;;;;0.17;0.17;;;;;;;;;;4978399;28;20046;-88
2023/12/17 01:52:18;;;;;;;0.10;0.10;;;;;;;;;;4994619;28;20076;-88
2023/12/17 01:54:44;;;;;;;0.10;0.10;;;;;;;;;;4994739;28;20517;-87
2023/12/17 01:57:11;;;;;;;0.10;0.10;;;;;;;;;;4994378;28;20050;-87
2023/12/17 01:59:37;;;;;;;0.20;0.20;;;;;;;;;;4977987;28;20074;-88
2023/12/17 02:02:03;;;;;;;0.20;0.20;;;;;;;;;;4978167;28;20092;-87
2023/12/17 02:04:29;;;;;;;0.10;0.10;;;;;;;;;;4994692;28;20125;-87
2023/12/17 02:06:55;;;;;;;0.10;0.10;;;;;;;;;;4977981;28;20508;-88
2023/12/17 02:09:21;;;;;;;0.10;0.10;;;;;;;;;;4993513;28;20180;-87
2023/12/17 02:11:47;;;;;;;0.10;0.10;;;;;;;;;;4994073;28;20074;-87
2023/12/17 02:14:13;;;;;;;0.10;0.10;;;;;;;;;;4994123;28;20151;-88
2023/12/17 02:16:39;;;;;;;0.20;0.20;;;;;;;;;;4977831;28;20049;-88
2023/12/17 02:19:05;;;;;;;0.10;0.10;;;;;;;;;;4977796;28;20403;-87
2023/12/17 02:21:32;;;;;;;0.10;0.10;;;;;;;;;;4993890;28;20053;-87
2023/12/17 02:23:58;;;;;;;0.10;0.10;;;;;;;;;;4978023;28;20427;-87
2023/12/17 02:26:24;;;;;;;0.10;0.10;;;;;;;;;;4977606;28;20049;-86
2023/12/17 02:28:50;;;;;;;0.55;0.20;;;;;;;;;;4978113;28;20042;-87
2023/12/17 02:31:16;;;;;;;0.10;0.10;;;;;;;;;;4977415;28;20050;-88
2023/12/17 02:33:42;;;;;;;0.20;0.20;;;;;;;;;;4993767;28;20042;-87
2023/12/17 02:36:08;;;;;;;0.10;0.10;;;;;;;;;;4993845;28;20046;-87
2023/12/17 02:38:34;;;;;;;0.10;0.10;;;;;;;;;;4993529;28;20049;-86
2023/12/17 02:41:00;;;;;;;0.20;0.20;;;;;;;;;;4977264;28;20043;-87
2023/12/17 02:43:26;;;;;;;0.20;0.20;;;;;;;;;;4993808;28;20046;-87
2023/12/17 02:45:52;;;;;;;0.20;0.20;;;;;;;;;;4994059;28;20038;-87
2023/12/17 02:48:18;;;;;;;0.10;0.10;;;;;;;;;;4977023;28;20053;-87
2023/12/17 02:50:46;;;;;;;0.10;0.10;;;;;;;;;;4993255;28;20133;-87
2023/12/17 02:53:12;;;;;;;0.20;0.20;;;;;;;;;;4993656;28;20117;-87
2023/12/17 02:55:38;;;;;;;0.10;0.10;;;;;;;;;;4977032;28;20461;-88
2023/12/17 02:58:05;;;;;;;0.15;0.15;;;;;;;;;;4993468;28;20240;-88
2023/12/17 03:00:31;;;;;;;0.10;0.10;;;;;;;;;;4976933;28;20061;-88
2023/12/17 03:02:57;;;;;;;0.10;0.10;;;;;;;;;;4976986;28;20046;-88
2023/12/17 03:05:23;;;;;;;0.40;0.40;;;;;;;;;;4993463;28;20560;-88
2023/12/17 03:07:49;;;;;;;0.10;0.10;;;;;;;;;;4976934;28;20099;-88
2023/12/17 03:10:15;;;;;;;0.17;0.17;;;;;;;;;;4993007;28;20125;-87
2023/12/17 03:12:42;;;;;;;0.13;0.13;;;;;;;;;;4977437;28;20454;-88
2023/12/17 03:15:08;;;;;;;0.10;0.10;;;;;;;;;;4993206;28;20057;-88
2023/12/17 03:17:37;;;;;;;0.45;0.28;;;;;;;;;;4993170;28;20050;-87
2023/12/17 03:20:06;;;;;;;0.10;0.10;;;;;;;;;;4992783;28;20097;-88
2023/12/17 03:22:32;;;;;;;0.35;0.35;;;;;;;;;;4976709;28;20060;-88
2023/12/17 03:24:58;;;;;;;0.10;0.10;;;;;;;;;;4992841;28;20522;-88
2023/12/17 03:27:25;;;;;;;0.10;0.10;;;;;;;;;;4976679;28;20038;-88
2023/12/17 03:29:51;;;;;;;0.10;0.10;;;;;;;;;;4992750;28;20141;-87
2023/12/17 03:32:18;;;;;;;0.10;0.10;;;;;;;;;;4976791;28;20047;-88
2023/12/17 03:34:44;;;;;;;0.10;0.10;;;;;;;;;;4976499;28;20137;-87
2023/12/17 03:37:09;;;;;;;0.20;0.20;;;;;;;;;;4992846;28;20081;-89
2023/12/17 03:39:35;;;;;;;0.15;0.15;;;;;;;;;;4992489;28;20387;-87
2023/12/17 03:42:02;;;;;;;0.10;0.10;;;;;;;;;;4976301;28;20030;-86
2023/12/17 03:44:29;;;;;;;0.10;0.10;;;;;;;;;;4992761;28;20047;-87
2023/12/17 03:46:55;;;;;;;0.10;0.10;;;;;;;;;;4976350;28;20045;-87
2023/12/17 03:49:21;;;;;;;0.10;0.10;;;;;;;;;;4976101;28;20042;-87
2023/12/17 03:51:47;;;;;;;0.35;0.35;;;;;;;;;;4992077;28;20042;-87
2023/12/17 03:54:13;;;;;;;0.22;0.20;;;;;;;;;;4992477;28;20046;-87
2023/12/17 03:56:45;;;;;;;0.10;0.10;;;;;;;;;;4992247;28;20041;-87
2023/12/17 03:59:11;;;;;;;0.10;0.10;;;;;;;;;;4992103;28;20057;-88
2023/12/17 04:01:43;;;;;;;0.10;0.10;;;;;;;;;;4975716;28;20054;-87
2023/12/17 04:04:09;;;;;;;0.10;0.10;;;;;;;;;;4992369;28;20426;-87
2023/12/17 04:06:35;;;;;;;0.10;0.10;;;;;;;;;;4975862;28;20035;-87
2023/12/17 04:09:02;;;;;;;0.10;0.10;;;;;;;;;;4976075;28;20057;-86
2023/12/17 04:11:31;;;;;;;0.20;0.20;;;;;;;;;;4992079;28;20038;-87
2023/12/17 04:13:57;;;;;;;0.10;0.10;;;;;;;;;;4991996;28;20418;-88
2023/12/17 04:16:23;;;;;;;0.10;0.10;;;;;;;;;;4975714;28;20046;-88
2023/12/17 04:18:49;;;;;;;0.10;0.10;;;;;;;;;;4975553;28;20129;-87
2023/12/17 04:21:16;;;;;;;0.10;0.10;;;;;;;;;;4991932;28;20122;-87
2023/12/17 04:23:42;;;;;;;0.10;0.10;;;;;;;;;;4975800;28;20066;-88
2023/12/17 04:26:08;;;;;;;0.10;0.10;;;;;;;;;;4991801;28;20089;-88
2023/12/17 04:28:34;;;;;;;0.10;0.10;;;;;;;;;;4975574;28;20042;-87
2023/12/17 04:31:00;;;;;;;0.10;0.10;;;;;;;;;;4975370;28;20042;-88
2023/12/17 04:33:26;;;;;;;0.10;0.10;;;;;;;;;;4991795;28;20046;-88
2023/12/17 04:35:52;;;;;;;0.20;0.20;;;;;;;;;;4975757;28;20053;-87
2023/12/17 04:38:18;;;;;;;0.10;0.10;;;;;;;;;;4975486;28;20407;-88
2023/12/17 04:40:46;;;;;;;0.20;0.20;;;;;;;;;;4975661;28;20050;-87
2023/12/17 04:43:12;;;;;;;0.10;0.10;;;;;;;;;;4975969;28;20034;-87
2023/12/17 04:45:39;;;;;;;0.40;0.40;;;;;;;;;;4975736;28;20062;-88
2023/12/17 04:48:04;;;;;;;0.10;0.10;;;;;;;;;;4991855;28;20133;-87
2023/12/17 04:50:31;;;;;;;0.10;0.10;;;;;;;;;;4975341;28;20085;-88
2023/12/17 04:52:57;;;;;;;0.13;0.13;;;;;;;;;;4975400;28;20041;-88
2023/12/17 04:55:23;;;;;;;0.10;0.10;;;;;;;;;;4975277;28;20081;-87
2023/12/17 04:57:49;;;;;;;0.32;0.20;;;;;;;;;;4991416;28;20486;-87
2023/12/17 05:00:15;;;;;;;0.10;0.10;;;;;;;;;;4991061;28;20105;-87
2023/12/17 05:02:41;;;;;;;0.10;0.10;;;;;;;;;;4975425;28;20394;-88
2023/12/17 05:05:07;;;;;;;0.10;0.10;;;;;;;;;;4991512;28;20038;-87
2023/12/17 05:07:34;;;;;;;0.20;0.20;;;;;;;;;;4975486;28;20066;-87
2023/12/17 05:10:00;;;;;;;0.25;0.25;;;;;;;;;;4975706;28;20050;-88
2023/12/17 05:12:26;;;;;;;0.10;0.10;;;;;;;;;;4975785;28;20038;-88
2023/12/17 05:14:52;;;;;;;0.10;0.10;;;;;;;;;;4991611;28;20129;-87
2023/12/17 05:17:18;;;;;;;0.10;0.10;;;;;;;;;;4975430;28;20121;-87
2023/12/17 05:19:44;;;;;;;0.10;0.10;;;;;;;;;;4974946;28;20194;-87
2023/12/17 05:22:10;;;;;;;0.10;0.10;;;;;;;;;;4991458;28;20034;-86
2023/12/17 05:24:36;;;;;;;0.47;0.47;;;;;;;;;;4991115;28;20034;-86
2023/12/17 05:27:02;;;;;;;0.30;0.30;;;;;;;;;;4975160;28;20141;-86
2023/12/17 05:29:28;;;;;;;0.10;0.10;;;;;;;;;;4974847;28;20046;-87
2023/12/17 05:31:54;;;;;;;0.20;0.20;;;;;;;;;;4974761;28;20046;-87
2023/12/17 05:34:20;;;;;;;0.13;0.13;;;;;;;;;;4975076;28;20046;-87
2023/12/17 05:36:46;;;;;;;0.20;0.20;;;;;;;;;;4991021;28;20489;-87
2023/12/17 05:39:12;;;;;;;0.20;0.20;;;;;;;;;;4974711;28;20402;-86
2023/12/17 05:41:38;;;;;;;0.10;0.10;;;;;;;;;;4974749;28;20558;-86
2023/12/17 05:44:04;;;;;;;0.10;0.10;;;;;;;;;;4976319;28;20137;-87
2023/12/17 05:46:30;;;;;;;0.10;0.10;;;;;;;;;;4978933;28;20044;-87
2023/12/17 05:48:57;;;;;;;0.15;0.15;;;;;;;;;;4978362;28;20125;-87
2023/12/17 05:51:23;;;;;;;0.10;0.10;;;;;;;;;;4978541;28;20081;-87
2023/12/17 05:53:49;;;;;;;0.10;0.10;;;;;;;;;;4978606;28;20073;-87
2023/12/17 05:56:15;;;;;;;0.10;0.10;;;;;;;;;;4978417;28;20557;-87
2023/12/17 05:58:41;;;;;;;0.10;0.10;;;;;;;;;;4978416;28;20069;-87
2023/12/17 06:01:07;;;;;;;0.10;0.10;;;;;;;;;;4977808;28;20065;-88
2023/12/17 06:03:33;;;;;;;0.10;0.10;;;;;;;;;;4978347;28;20039;-87
2023/12/17 06:06:00;;;;;;;0.10;0.10;;;;;;;;;;4994558;28;20081;-88
2023/12/17 06:08:26;;;;;;;0.10;0.10;;;;;;;;;;4978039;28;20069;-85
2023/12/17 06:10:51;;;;;;;0.10;0.10;;;;;;;;;;4978460;28;20035;-88
2023/12/17 06:13:18;;;;;;;0.20;0.20;;;;;;;;;;4977846;28;20506;-86
2023/12/17 06:15:45;;;;;;;0.10;0.10;;;;;;;;;;4977837;28;20094;-86
2023/12/17 06:18:13;;;;;;;0.20;0.20;;;;;;;;;;4994110;28;20038;-89
2023/12/17 06:20:39;;;;;;;0.10;0.10;;;;;;;;;;4977721;28;20038;-87
2023/12/17 06:23:05;;;;;;;0.20;0.20;;;;;;;;;;4994210;28;20034;-87
2023/12/17 06:25:31;;;;;;;0.10;0.10;;;;;;;;;;4978099;28;20045;-87
2023/12/17 06:27:57;;;;;;;0.10;0.10;;;;;;;;;;4993779;28;20066;-87
2023/12/17 06:30:24;;;;;;;0.10;0.10;;;;;;;;;;4977618;28;20054;-87
2023/12/17 06:32:50;;;;;;;0.10;0.10;;;;;;;;;;4977643;28;20113;-88
2023/12/17 06:35:16;;;;;;;0.10;0.10;;;;;;;;;;4977984;28;20473;-87
2023/12/17 06:37:42;;;;;;;0.20;0.20;;;;;;;;;;4977580;28;20125;-87
2023/12/17 06:40:09;;;;;;;0.10;0.10;;;;;;;;;;4977343;28;20078;-86
2023/12/17 06:42:35;;;;;;;0.10;0.10;;;;;;;;;;4977655;28;20034;-87
2023/12/17 06:45:01;;;;;;;0.10;0.10;;;;;;;;;;4993587;28;20046;-89
2023/12/17 06:47:27;;;;;;;0.10;0.10;;;;;;;;;;4993907;28;20386;-86
2023/12/17 06:49:54;;;;;;;0.10;0.10;;;;;;;;;;4977233;28;20042;-88
2023/12/17 06:52:20;;;;;;;0.10;0.10;;;;;;;;;;4977388;28;20077;-87
2023/12/17 06:54:46;;;;;;;0.10;0.10;;;;;;;;;;4976935;28;20089;-88
2023/12/17 06:57:12;;;;;;;0.10;0.10;;;;;;;;;;4993310;28;20049;-87
2023/12/17 06:59:38;;;;;;;0.10;0.10;;;;;;;;;;4993212;28;20513;-88
2023/12/17 07:02:04;;;;;;;0.10;0.10;;;;;;;;;;4977224;28;20526;-88
2023/12/17 07:04:30;;;;;;;0.10;0.10;;;;;;;;;;4993592;28;20389;-88
2023/12/17 07:06:56;;;;;;;0.10;0.10;;;;;;;;;;4976994;28;20038;-88
2023/12/17 07:09:24;;;;;;;0.10;0.10;;;;;;;;;;4977054;28;20057;-88
2023/12/17 07:11:50;;;;;;;0.10;0.10;;;;;;;;;;4976824;28;20042;-88
2023/12/17 07:14:16;;;;;;;0.20;0.20;;;;;;;;;;4976891;28;20552;-87
2023/12/17 07:16:42;;;;;;;0.20;0.20;;;;;;;;;;4976864;28;20046;-88
2023/12/17 07:19:08;;;;;;;0.10;0.10;;;;;;;;;;4976817;28;20065;-87
2023/12/17 07:21:34;;;;;;;0.10;0.10;;;;;;;;;;4993149;28;20128;-88
2023/12/17 07:24:00;;;;;;;0.30;0.30;;;;;;;;;;4976656;28;20039;-87
2023/12/17 07:26:26;;;;;;;0.10;0.10;;;;;;;;;;4976518;28;20044;-88
2023/12/17 07:28:52;;;;;;;0.10;0.10;;;;;;;;;;4992711;28;20049;-87
2023/12/17 07:31:18;;;;;;;0.20;0.20;;;;;;;;;;4992729;28;20046;-88
2023/12/17 07:33:45;;;;;;;0.10;0.10;;;;;;;;;;4976606;28;20125;-89
2023/12/17 07:36:11;;;;;;;0.28;0.28;;;;;;;;;;4976572;28;20046;-93
2023/12/17 07:38:37;;;;;;;0.10;0.10;;;;;;;;;;4976411;28;20038;-87
2023/12/17 07:41:03;;;;;;;0.10;0.10;;;;;;;;;;4992634;28;20049;-88
2023/12/17 07:43:30;;;;;;;0.10;0.10;;;;;;;;;;4976346;28;20038;-88
2023/12/17 07:45:56;;;;;;;0.10;0.10;;;;;;;;;;4976486;28;20038;-88
2023/12/17 07:48:22;;;;;;;0.38;0.30;;;;;;;;;;4992448;28;20541;-88
2023/12/17 07:50:47;;;;;;;0.45;0.45;;;;;;;;;;4976057;28;20047;-88
2023/12/17 07:53:13;;;;;;;0.10;0.10;;;;;;;;;;4976156;28;20414;-86
2023/12/17 07:55:40;;;;;;;0.20;0.20;;;;;;;;;;4976124;28;20046;-87
2023/12/17 07:58:07;;;;;;;0.47;0.47;;;;;;;;;;4976453;28;20438;-88
2023/12/17 08:00:33;;;;;;;0.10;0.10;;;;;;;;;;4976730;28;20113;-91
2023/12/17 08:02:59;;;;;;;0.17;0.17;;;;;;;;;;4976577;28;20055;-89
2023/12/17 08:05:25;;;;;;;0.10;0.10;;;;;;;;;;4976218;28;20042;-90
2023/12/17 08:07:51;;;;;;;0.20;0.20;;;;;;;;;;4974382;28;20486;-88
2023/12/17 08:10:17;;;;;;;0.20;0.20;;;;;;;;;;4975858;28;20045;-87
2023/12/17 08:12:43;;;;;;;0.10;0.10;;;;;;;;;;4991206;28;20100;-87
2023/12/17 08:15:09;;;;;;;0.10;0.10;;;;;;;;;;4943996;28;20050;-87
2023/12/17 08:17:35;;;;;;;0.15;0.15;;;;;;;;;;4959615;28;20042;-87
2023/12/17 08:20:01;;;;;;;0.20;0.20;;;;;;;;;;4975300;28;20069;-87
2023/12/17 08:22:27;;;;;;;0.10;0.10;;;;;;;;;;4972228;28;20043;-86
2023/12/17 08:24:53;;;;;;;0.10;0.10;;;;;;;;;;4940609;28;20074;-86
2023/12/17 08:27:19;;;;;;;0.10;0.10;;;;;;;;;;4980962;28;20475;-86
2023/12/17 08:29:47;;;;;;;0.10;0.10;;;;;;;;;;4975347;28;20038;-87
2023/12/17 08:32:14;;;;;;;0.20;0.20;;;;;;;;;;4991975;28;20454;-85
2023/12/17 08:34:41;;;;;;;0.30;0.30;;;;;;;;;;4991907;28;20057;-86
2023/12/17 08:37:07;;;;;;;0.10;0.10;;;;;;;;;;4991497;28;20042;-86
2023/12/17 08:39:33;;;;;;;0.30;0.30;;;;;;;;;;4975090;28;20054;-90
2023/12/17 08:41:59;;;;;;;0.20;0.20;;;;;;;;;;4991525;28;20100;-90
2023/12/17 08:44:25;;;;;;;0.20;0.20;;;;;;;;;;4975501;28;20129;-90
2023/12/17 08:46:52;;;;;;;0.20;0.20;;;;;;;;;;4972073;28;20030;-89
2023/12/17 08:49:18;;;;;;;0.10;0.10;;;;;;;;;;4940266;28;20042;-90
2023/12/17 08:51:45;;;;;;;0.20;0.20;;;;;;;;;;4942780;28;20189;-89
2023/12/17 08:54:12;;;;;;;0.10;0.10;;;;;;;;;;4975455;28;20096;-90
2023/12/17 08:56:39;;;;;;;0.20;0.20;;;;;;;;;;4975700;28;20042;-89
2023/12/17 08:59:05;;;;;;;0.20;0.20;;;;;;;;;;4976016;28;20058;-90
2023/12/17 09:01:31;;;;;;;0.30;0.30;;;;;;;;;;4978389;28;20059;-89
2023/12/17 09:03:57;;;;;;;0.10;0.10;;;;;;;;;;4978216;28;20505;-89
2023/12/17 09:06:23;;;;;;;0.10;0.10;;;;;;;;;;4977131;28;20559;-89
2023/12/17 09:08:49;;;;;;;0.52;0.52;;;;;;;;;;4974851;28;20110;-89
2023/12/17 09:11:15;;;;;;;0.10;0.10;;;;;;;;;;4959204;28;20053;-89
2023/12/17 09:13:41;;;;;;;0.47;0.47;;;;;;;;;;4958200;28;20130;-89
2023/12/17 09:16:07;;;;;;;0.52;0.15;;;;;;;;;;4975163;28;20453;-90
2023/12/17 09:18:33;;;;;;;0.88;0.45;;;;;;;;;;5009146;28;20080;-89
2023/12/17 09:20:59;;;;;;;0.40;0.40;;;;;;;;;;4994083;28;20042;-90
2023/12/17 09:23:26;;;;;;;0.15;0.15;;;;;;;;;;4994766;28;20034;-90
2023/12/17 09:25:52;;;;;;;0.10;0.10;;;;;;;;;;4978658;28;20049;-91
2023/12/17 09:28:18;;;;;;;0.20;0.20;;;;;;;;;;4988776;28;20043;-90
2023/12/17 09:30:44;;;;;;;0.40;0.35;;;;;;;;;;4962895;28;20050;-89
2023/12/17 09:33:10;;;;;;;0.35;0.30;;;;;;;;;;4978929;28;20486;-90
2023/12/17 09:35:37;;;;;;;0.10;0.10;;;;;;;;;;4963358;28;20073;-88
2023/12/17 09:38:04;;;;;;;0.10;0.10;;;;;;;;;;4962325;28;20042;-89
2023/12/17 09:40:31;;;;;;;0.30;0.30;;;;;;;;;;4962991;28;20512;-89
2023/12/17 09:42:57;;;;;;;0.32;0.32;;;;;;;;;;4962513;28;20046;-89
2023/12/17 09:45:23;;;;;;;0.30;0.30;;;;;;;;;;4962588;28;20177;-88
2023/12/17 09:47:49;;;;;;;0.10;0.10;;;;;;;;;;4962289;28;20057;-88
2023/12/17 09:50:15;;;;;;;1.38;0.20;;;;;;;;;;4962334;28;20049;-89
2023/12/17 09:52:44;;;;;;;0.30;0.30;;;;;;;;;;4962267;28;20133;-88
2023/12/17 09:55:10;;;;;;;1.27;0.35;;;;;;;;;;4962793;28;20398;-89
2023/12/17 09:57:36;;;;;;;0.10;0.10;;;;;;;;;;4962420;28;20129;-89
2023/12/17 10:00:03;;;;;;;0.20;0.20;;;;;;;;;;4961862;28;20112;-90
2023/12/17 10:02:29;;;;;;;0.10;0.10;;;;;;;;;;4962230;28;20074;-89
2023/12/17 10:04:56;;;;;;;0.80;0.80;;;;;;;;;;4962096;28;20146;-87
2023/12/17 10:07:22;;;;;;;0.20;0.20;;;;;;;;;;4962082;28;20121;-89
2023/12/17 10:09:48;;;;;;;0.45;0.45;;;;;;;;;;4961848;28;20138;-87
2023/12/17 10:12:15;;;;;;;0.85;0.45;;;;;;;;;;4961022;28;20053;-89
2023/12/17 10:14:41;;;;;;;0.10;0.10;;;;;;;;;;4993757;28;20051;-91
2023/12/17 10:17:07;;;;;;;0.15;0.15;;;;;;;;;;4993714;28;20042;-87
2023/12/17 10:19:33;;;;;;;0.10;0.10;;;;;;;;;;4993775;28;20049;-89
2023/12/17 10:22:05;;;;;;;0.20;0.20;;;;;;;;;;4993764;28;20038;-89
2023/12/17 10:24:38;;;;;;;0.20;0.20;;;;;;;;;;4993839;28;20494;-88
2023/12/17 10:27:04;;;;;;;;;;;;;;;;;;4978129;28;20125;-89
2023/12/17 10:29:30;;;;;;;0.22;0.22;;;;;;;;;;4976426;28;19956;-89
2023/12/17 10:31:56;;;;;;;0.30;0.30;;;;;;;;;;4977500;28;20055;-88
2023/12/17 10:34:22;;;;;;;0.77;0.77;;;;;;;;;;4993240;28;20134;-89
2023/12/17 10:36:49;;;;;;;0.13;0.13;;;;;;;;;;4961470;28;20038;-89
2023/12/17 10:39:16;;;;;;;1.45;0.40;;;;;;;;;;4961187;28;20401;-89
2023/12/17 10:41:42;;;;;;;0.20;0.20;;;;;;;;;;4993631;28;20116;-91
2023/12/17 10:44:10;;;;;;;0.40;0.40;;;;;;;;;;4991122;28;20053;-89
2023/12/17 10:46:36;;;;;;;0.63;0.40;;;;;;;;;;4960861;28;20034;-89
2023/12/17 10:49:02;;;;;;;1.35;0.52;;;;;;;;;;4961212;28;20405;-89
2023/12/17 10:51:29;;;;;;;1.55;0.73;;;;;;;;;;4977115;28;20046;-90
2023/12/17 10:53:54;;;;;;;0.10;0.10;;;;;;;;;;4977240;28;20057;-90
2023/12/17 10:56:22;;;;;;;0.30;0.30;;;;;;;;;;4977506;28;20042;-89
2023/12/17 10:58:48;;;;;;;0.45;0.35;;;;;;;;;;4977040;28;20165;-90
2023/12/17 11:01:14;;;;;;;0.20;0.20;;;;;;;;;;4978990;28;20050;-91
2023/12/17 11:03:40;;;;;;;0.20;0.20;;;;;;;;;;4977329;28;20050;-91
2023/12/17 11:06:07;;;;;;;0.43;0.43;;;;;;;;;;4944209;28;20039;-92
2023/12/17 11:08:35;;;;;;;0.22;0.20;;;;;;;;;;4963934;28;20046;-91
2023/12/17 11:11:02;;;;;;;0.95;0.40;;;;;;;;;;4996274;28;20049;-92
2023/12/17 11:13:29;;;;;;;0.40;0.32;;;;;;;;;;4996152;28;20046;-93
2023/12/17 11:15:55;;;;;;;0.65;0.43;;;;;;;;;;4996625;28;20041;-90
2023/12/17 11:18:23;;;;;;;0.10;0.10;;;;;;;;;;4988789;28;20383;-89
2023/12/17 11:20:53;;;;;;;0.20;0.20;;;;;;;;;;4976831;28;20089;-91
2023/12/17 11:23:19;;;;;;;0.38;0.38;;;;;;;;;;4961087;28;20049;-91
2023/12/17 11:25:47;;;;;;;0.20;0.20;;;;;;;;;;4976732;28;20533;-92
2023/12/17 11:28:19;;;;;;;0.10;0.10;;;;;;;;;;4972787;28;20039;-90
2023/12/17 11:30:48;;;;;;;0.32;0.32;;;;;;;;;;4941307;28;20041;-90
2023/12/17 11:33:14;;;;;;;0.17;0.17;;;;;;;;;;4973024;28;20039;-90
2023/12/17 11:35:40;;;;;;;0.75;0.28;;;;;;;;;;4966339;28;20030;-90
2023/12/17 11:38:06;;;;;;;0.25;0.25;;;;;;;;;;4977304;28;20114;-89
2023/12/17 11:40:32;;;;;;;0.20;0.20;;;;;;;;;;4975845;28;20042;-89
2023/12/17 11:42:59;;;;;;;0.20;0.20;;;;;;;;;;4980216;28;20033;-88
2023/12/17 11:45:32;;;;;;;0.20;0.20;;;;;;;;;;5002574;28;20066;-91
2023/12/17 11:48:07;;;;;;;1.00;0.88;;;;;;;;;;4961090;28;20359;-89
2023/12/17 11:50:46;;;;;;;0.40;0.40;;;;;;;;;;4960046;28;20053;-91
2023/12/17 11:53:16;;;;;;;0.30;0.30;;;;;;;;;;4976354;28;20482;-91
2023/12/17 11:55:47;;;;;;;0.30;0.30;;;;;;;;;;4993549;28;20161;-95
2023/12/17 11:58:15;;;;;;;0.20;0.20;;;;;;;;;;4973125;28;20059;-91
2023/12/17 12:00:42;;;;;;;0.10;0.10;;;;;;;;;;4958168;28;20082;-93
2023/12/17 12:03:08;;;;;;;0.40;0.40;;;;;;;;;;4957160;28;20074;-91
2023/12/17 12:05:34;;;;;;;0.10;0.10;;;;;;;;;;4958399;28;20038;-90
2023/12/17 12:08:00;;;;;;;0.20;0.20;;;;;;;;;;4975905;28;20390;-89
2023/12/17 12:10:26;;;;;;;0.30;0.30;;;;;;;;;;4975794;28;20043;-89
2023/12/17 12:13:05;;;;;;;0.40;0.40;;;;;;;;;;4975731;28;20043;-89
2023/12/17 12:15:31;;;;;;;0.52;0.52;;;;;;;;;;4975595;28;20046;-89
2023/12/17 12:17:57;;;;;;;3.35;0.43;;;;;;;;;;4975885;28;20386;-90
2023/12/17 12:20:34;;;;;;;0.20;0.20;;;;;;;;;;4975545;28;20050;-89
2023/12/17 12:23:00;;;;;;;0.30;0.30;;;;;;;;;;4991474;28;20114;-90
2023/12/17 12:25:26;;;;;;;0.70;0.20;;;;;;;;;;4975893;28;20378;-89
2023/12/17 12:27:52;;;;;;;0.10;0.10;;;;;;;;;;4975623;28;20071;-90
2023/12/17 12:30:29;;;;;;;0.20;0.20;;;;;;;;;;4975509;28;20042;-87
2023/12/17 12:32:55;;;;;;;0.10;0.10;;;;;;;;;;4967359;28;20050;-89
2023/12/17 12:35:23;;;;;;;0.15;0.15;;;;;;;;;;4991986;28;20081;-90
2023/12/17 12:37:49;;;;;;;0.57;0.40;;;;;;;;;;4975782;28;20433;-89
2023/12/17 12:40:15;;;;;;;0.10;0.10;;;;;;;;;;5011026;28;20113;-89
2023/12/17 12:42:41;;;;;;;0.28;0.28;;;;;;;;;;5008224;28;20044;-89
2023/12/17 12:45:10;;;;;;;0.32;0.32;;;;;;;;;;4959199;28;20045;-89
2023/12/17 12:47:36;;;;;;;0.17;0.17;;;;;;;;;;4960004;28;20323;-89
2023/12/17 12:50:02;;;;;;;0.22;0.20;;;;;;;;;;4974875;28;20060;-89
2023/12/17 12:52:28;;;;;;;0.25;0.25;;;;;;;;;;4958886;28;20045;-90
2023/12/17 12:54:54;;;;;;;0.30;0.30;;;;;;;;;;4975484;28;20046;-89
2023/12/17 12:57:21;;;;;;;0.17;0.17;;;;;;;;;;4959364;28;20045;-89
2023/12/17 12:59:47;;;;;;;0.47;0.47;;;;;;;;;;4959055;28;20617;-89
2023/12/17 13:02:13;;;;;;;0.15;0.15;;;;;;;;;;4975573;28;20389;-89
2023/12/17 13:04:39;;;;;;;0.13;0.13;;;;;;;;;;4975139;28;20039;-89
2023/12/17 13:07:05;;;;;;;0.50;0.50;;;;;;;;;;4975776;28;20046;-90
2023/12/17 13:09:31;;;;;;;0.55;0.55;;;;;;;;;;4974895;28;20049;-88
2023/12/17 13:11:57;;;;;;;0.17;0.17;;;;;;;;;;4975025;28;20046;-88
2023/12/17 13:14:23;;;;;;;2.03;1.92;;;;;;;;;;4985620;28;20042;-86
2023/12/17 13:16:50;;;;;;;0.68;0.68;;;;;;;;;;4994556;28;20128;-89
2023/12/17 13:19:16;;;;;;;0.30;0.30;;;;;;;;;;4993999;28;20042;-90
2023/12/17 13:21:43;;;;;;;0.38;0.38;;;;;;;;;;4994439;28;20046;-89
2023/12/17 13:24:09;;;;;;;0.75;0.65;;;;;;;;;;4986259;28;20077;-89
2023/12/17 13:26:35;;;;;;;0.50;0.50;;;;;;;;;;4991070;28;20042;-89
2023/12/17 13:29:01;;;;;;;0.10;0.10;;;;;;;;;;4991263;28;20035;-89
2023/12/17 13:31:27;;;;;;;1.20;0.80;;;;;;;;;;4974180;28;20548;-89
2023/12/17 13:33:53;;;;;;;0.47;0.47;;;;;;;;;;4959006;28;20478;-89
2023/12/17 13:36:20;;;;;;;1.52;0.20;;;;;;;;;;4959779;28;20042;-91
2023/12/17 13:38:46;;;;;;;0.10;0.10;;;;;;;;;;4961857;28;20113;-91
2023/12/17 13:41:12;;;;;;;0.10;0.10;;;;;;;;;;4994558;28;20438;-90
2023/12/17 13:43:40;;;;;;;0.25;0.25;;;;;;;;;;4994241;28;20165;-91
2023/12/17 13:46:07;;;;;;;0.10;0.10;;;;;;;;;;4986259;28;20031;-89
2023/12/17 13:48:33;;;;;;;0.20;0.20;;;;;;;;;;4974718;28;20038;-89
2023/12/17 13:51:00;;;;;;;0.10;0.10;;;;;;;;;;4990867;28;20398;-90
2023/12/17 13:53:27;;;;;;;0.10;0.10;;;;;;;;;;4974884;28;20049;-89
2023/12/17 13:55:53;;;;;;;0.35;0.20;;;;;;;;;;4975220;28;20513;-89
2023/12/17 13:58:19;;;;;;;0.30;0.30;;;;;;;;;;4975011;28;20038;-90
2023/12/17 14:00:45;;;;;;;0.10;0.10;;;;;;;;;;4990507;28;20129;-91
2023/12/17 14:03:11;;;;;;;0.52;0.40;;;;;;;;;;4975542;28;20050;-90
2023/12/17 14:05:37;;;;;;;0.30;0.30;;;;;;;;;;4961464;28;20085;-90
2023/12/17 14:08:03;;;;;;;0.20;0.20;;;;;;;;;;4978771;28;20466;-90
2023/12/17 14:10:29;;;;;;;0.20;0.20;;;;;;;;;;4978524;28;20069;-90
2023/12/17 14:12:57;;;;;;;0.20;0.20;;;;;;;;;;4979562;28;20401;-90
2023/12/17 14:15:24;;;;;;;0.20;0.20;;;;;;;;;;4980705;28;20046;-90
2023/12/17 14:17:50;;;;;;;0.20;0.20;;;;;;;;;;4991338;28;20134;-91
2023/12/17 14:20:16;;;;;;;0.43;0.43;;;;;;;;;;4989304;28;20042;-89
2023/12/17 14:22:42;;;;;;;0.10;0.10;;;;;;;;;;4980255;28;20069;-89
2023/12/17 14:25:09;;;;;;;0.22;0.22;;;;;;;;;;4978216;28;20478;-90
2023/12/17 14:27:36;;;;;;;0.13;0.13;;;;;;;;;;4978997;28;20042;-90
2023/12/17 14:30:02;;;;;;;0.40;0.40;;;;;;;;;;4978651;28;20056;-89
2023/12/17 14:32:28;;;;;;;0.10;0.10;;;;;;;;;;4977885;28;20125;-90
2023/12/17 14:34:56;;;;;;;0.50;0.50;;;;;;;;;;4978018;28;20046;-90
2023/12/17 14:37:23;;;;;;;0.38;0.38;;;;;;;;;;4977874;28;20046;-90